Time;durP1;ratioP1;P1;durP2;ratioP2;P2;SDS_P1;SDS_P2;PMS_P1;PMS_P2;Temp;Humidity;BMP_temperature;BMP_pressure;BME280_temperature;BME280_humidity;BME280_pressure;Samples;Min_cycle;Max_cycle;Signal;HPM_P1;HPM_P2
2021/12/06 00:01:41;;;;;;;8.40;5.80;;;14.40;56.80;;;;;;5091048;28;20495;-83
2021/12/06 00:04:12;;;;;;;8.47;5.73;;;14.30;56.80;;;;;;5094006;28;20507;-80
2021/12/06 00:06:41;;;;;;;9.17;5.77;;;14.40;56.80;;;;;;5086574;28;20449;-81
2021/12/06 00:09:12;;;;;;;8.53;5.13;;;14.40;56.80;;;;;;5093985;28;20542;-80
2021/12/06 00:11:40;;;;;;;5.77;4.87;;;14.40;56.80;;;;;;5086428;28;20470;-80
2021/12/06 00:14:09;;;;;;;6.60;5.40;;;14.40;56.80;;;;;;5094988;28;20488;-80
2021/12/06 00:16:38;;;;;;;5.37;4.73;;;14.40;57.00;;;;;;5089669;28;20430;-80
2021/12/06 00:19:06;;;;;;;8.40;5.20;;;14.40;57.00;;;;;;5087128;28;20459;-80
2021/12/06 00:21:34;;;;;;;6.97;4.70;;;14.40;56.90;;;;;;5089247;28;20453;-80
2021/12/06 00:24:01;;;;;;;7.13;5.50;;;14.40;56.90;;;;;;5088516;28;20885;-80
2021/12/06 00:26:29;;;;;;;9.20;5.27;;;14.40;57.00;;;;;;5089839;28;20456;-80
2021/12/06 00:28:58;;;;;;;5.77;4.77;;;14.40;56.80;;;;;;5097513;28;20503;-80
2021/12/06 00:31:31;;;;;;;6.27;5.37;;;14.40;56.90;;;;;;5089068;28;20429;-80
2021/12/06 00:34:03;;;;;;;5.67;4.73;;;14.40;56.90;;;;;;5089861;28;21000;-80
2021/12/06 00:36:32;;;;;;;6.00;5.07;;;14.40;57.00;;;;;;5088789;28;20450;-81
2021/12/06 00:39:01;;;;;;;7.50;5.43;;;14.30;56.80;;;;;;5090442;28;20425;-80
2021/12/06 00:41:29;;;;;;;9.43;5.80;;;14.40;56.90;;;;;;5091113;28;20479;-80
2021/12/06 00:43:56;;;;;;;6.57;4.97;;;14.30;56.90;;;;;;5090590;28;20516;-81
2021/12/06 00:46:24;;;;;;;8.67;5.93;;;14.40;57.00;;;;;;5091375;28;20457;-80
2021/12/06 00:48:54;;;;;;;8.20;4.97;;;14.30;56.90;;;;;;5088922;28;20437;-80
2021/12/06 00:51:22;;;;;;;7.03;5.63;;;14.30;56.80;;;;;;5088936;28;20467;-80
2021/12/06 00:53:50;;;;;;;8.20;5.30;;;14.40;56.90;;;;;;5090607;28;20472;-80
2021/12/06 00:56:18;;;;;;;8.70;5.40;;;14.40;57.00;;;;;;5088876;28;20434;-80
2021/12/06 00:58:46;;;;;;;8.33;5.33;;;14.30;56.80;;;;;;5088386;28;20433;-80
2021/12/06 01:01:15;;;;;;;12.90;5.67;;;14.30;56.90;;;;;;5088355;28;20446;-80
2021/12/06 01:03:43;;;;;;;7.80;5.50;;;14.40;57.00;;;;;;5093501;28;20495;-80
2021/12/06 01:06:13;;;;;;;6.97;5.30;;;14.40;56.90;;;;;;5091202;28;20425;-80
2021/12/06 01:08:41;;;;;;;7.40;5.47;;;14.30;56.80;;;;;;5090407;28;20468;-80
2021/12/06 01:11:09;;;;;;;6.07;5.03;;;14.40;57.00;;;;;;5088568;28;20579;-80
2021/12/06 01:13:37;;;;;;;7.20;5.50;;;14.40;57.60;;;;;;5088392;28;20453;-80
2021/12/06 01:16:07;;;;;;;7.37;5.90;;;14.40;56.90;;;;;;5089072;28;20460;-80
2021/12/06 01:18:35;;;;;;;7.60;5.60;;;14.40;57.00;;;;;;5090046;28;20470;-80
2021/12/06 01:21:12;;;;;;;9.13;5.57;;;14.40;56.90;;;;;;5090775;28;20433;-80
2021/12/06 01:23:50;;;;;;;9.00;5.57;;;14.40;57.00;;;;;;5091000;28;20519;-80
2021/12/06 01:26:36;;;;;;;6.47;5.43;;;14.30;56.90;;;;;;5088766;28;20433;-80
2021/12/06 01:29:43;;;;;;;7.40;5.70;;;14.40;57.20;;;;;;5079996;28;20513;-80
2021/12/06 01:32:20;;;;;;;7.10;5.47;;;14.40;57.10;;;;;;5079483;28;20460;-80
2021/12/06 01:40:29;;;;;;;6.17;4.70;;;14.30;56.90;;;;;;5047557;28;20452;-81
2021/12/06 01:42:57;;;;;;;6.33;5.10;;;14.30;56.90;;;;;;5080445;28;20491;-80
2021/12/06 01:45:25;;;;;;;9.00;5.50;;;14.30;56.90;;;;;;5080310;28;20430;-80
2021/12/06 01:47:53;;;;;;;6.33;5.70;;;14.30;57.50;;;;;;5083187;28;20435;-80
2021/12/06 01:50:23;;;;;;;6.13;5.23;;;14.30;56.90;;;;;;5080524;28;20468;-80
2021/12/06 01:52:52;;;;;;;7.30;5.30;;;14.30;56.90;;;;;;5083730;28;20465;-80
2021/12/06 01:55:21;;;;;;;8.30;6.37;;;14.30;56.80;;;;;;5095418;28;20448;-80
2021/12/06 01:57:53;;;;;;;7.07;5.67;;;14.30;56.80;;;;;;5102251;28;20448;-80
2021/12/06 02:00:23;;;;;;;10.83;6.57;;;14.30;56.80;;;;;;5101886;28;20432;-80
2021/12/06 02:02:51;;;;;;;8.03;5.87;;;14.30;56.90;;;;;;5102029;28;20460;-80
2021/12/06 02:05:19;;;;;;;7.63;5.47;;;14.30;56.80;;;;;;5101813;28;20471;-80
2021/12/06 02:07:47;;;;;;;8.10;5.53;;;14.40;56.80;;;;;;5101767;28;20444;-80
2021/12/06 02:10:15;;;;;;;7.77;5.60;;;14.30;56.80;;;;;;5093407;28;20456;-80
2021/12/06 02:12:45;;;;;;;8.00;5.60;;;14.30;56.70;;;;;;5102476;28;20452;-80
2021/12/06 02:15:29;;;;;;;7.80;5.70;;;14.30;56.70;;;;;;5101923;28;20468;-80
2021/12/06 02:18:04;;;;;;;6.90;5.30;;;14.30;56.70;;;;;;5101694;28;20436;-80
2021/12/06 02:20:37;;;;;;;9.10;6.20;;;14.30;56.80;;;;;;5101484;28;20448;-80
2021/12/06 02:23:06;;;;;;;5.93;5.10;;;14.30;56.80;;;;;;5102213;28;20437;-80
2021/12/06 02:25:34;;;;;;;9.70;6.30;;;14.30;56.60;;;;;;5099683;28;20496;-80
2021/12/06 02:28:02;;;;;;;10.33;6.30;;;14.30;56.80;;;;;;5092755;28;20441;-80
2021/12/06 02:30:30;;;;;;;9.60;6.60;;;14.30;56.70;;;;;;5101883;28;20451;-80
2021/12/06 02:32:59;;;;;;;8.33;5.80;;;14.30;56.80;;;;;;5102014;28;20448;-80
2021/12/06 02:35:27;;;;;;;10.20;6.17;;;14.30;56.80;;;;;;5102694;28;20446;-81
2021/12/06 02:37:56;;;;;;;8.50;6.30;;;14.30;56.80;;;;;;5097618;28;20487;-80
2021/12/06 02:40:28;;;;;;;6.70;5.47;;;14.30;56.80;;;;;;5096802;28;20465;-80
2021/12/06 02:42:56;;;;;;;7.60;5.83;;;14.30;56.80;;;;;;5095740;28;20501;-81
2021/12/06 02:45:26;;;;;;;7.20;5.97;;;14.30;56.80;;;;;;5098527;28;20460;-80
2021/12/06 02:47:54;;;;;;;7.40;5.57;;;14.30;57.00;;;;;;5101618;28;20457;-80
2021/12/06 02:50:22;;;;;;;8.07;6.03;;;14.30;56.90;;;;;;5104149;28;20448;-80
2021/12/06 02:52:50;;;;;;;7.17;5.90;;;14.30;56.80;;;;;;5108794;28;20456;-80
2021/12/06 02:55:31;;;;;;;6.87;5.13;;;14.30;56.90;;;;;;5101716;28;20437;-81
2021/12/06 02:58:12;;;;;;;7.37;5.97;;;14.30;56.80;;;;;;5101590;28;20444;-80
2021/12/06 03:00:41;;;;;;;7.73;5.73;;;14.30;56.80;;;;;;5098637;28;20451;-81
2021/12/06 03:03:09;;;;;;;6.80;5.57;;;14.30;56.90;;;;;;5094991;28;20551;-80
2021/12/06 03:05:37;;;;;;;7.83;6.27;;;14.30;56.80;;;;;;5112533;28;20472;-80
2021/12/06 03:08:06;;;;;;;6.10;5.43;;;14.30;56.80;;;;;;5113413;28;20455;-80
2021/12/06 03:10:34;;;;;;;6.03;5.00;;;14.30;56.90;;;;;;5122767;28;20432;-81
2021/12/06 03:13:03;;;;;;;6.07;5.40;;;14.30;56.80;;;;;;5121626;28;20444;-80
2021/12/06 03:15:31;;;;;;;7.67;6.17;;;14.30;56.80;;;;;;5120584;28;20420;-80
2021/12/06 03:17:59;;;;;;;8.80;6.60;;;14.30;57.00;;;;;;5106642;28;20456;-80
2021/12/06 03:20:27;;;;;;;7.83;5.80;;;14.30;56.90;;;;;;5101857;28;20494;-80
2021/12/06 03:22:55;;;;;;;5.80;5.17;;;14.30;56.80;;;;;;5101908;28;20484;-81
2021/12/06 03:25:23;;;;;;;7.97;6.07;;;14.30;56.80;;;;;;5101900;28;20473;-80
2021/12/06 03:27:51;;;;;;;6.17;5.53;;;14.30;57.40;;;;;;5101586;28;20558;-80
2021/12/06 03:30:20;;;;;;;6.93;5.63;;;14.30;56.90;;;;;;5101495;28;20420;-80
2021/12/06 03:32:48;;;;;;;8.20;5.77;;;14.30;57.00;;;;;;5101848;28;20460;-80
2021/12/06 03:35:16;;;;;;;6.90;5.50;;;14.30;56.90;;;;;;5095271;28;20476;-80
2021/12/06 03:37:44;;;;;;;6.90;5.50;;;14.30;57.00;;;;;;5103576;28;20557;-80
2021/12/06 03:40:13;;;;;;;8.87;5.70;;;14.30;56.90;;;;;;5107094;28;20428;-80
2021/12/06 03:42:41;;;;;;;7.90;6.13;;;14.30;57.10;;;;;;5105059;28;20459;-80
2021/12/06 03:45:09;;;;;;;6.70;5.80;;;14.30;56.90;;;;;;5104784;28;20488;-80
2021/12/06 03:47:39;;;;;;;8.33;5.40;;;14.30;57.00;;;;;;5105582;28;20425;-80
2021/12/06 03:50:09;;;;;;;9.83;6.27;;;14.30;57.00;;;;;;5104563;28;20440;-80
2021/12/06 03:52:37;;;;;;;7.67;6.17;;;14.30;56.90;;;;;;5104763;28;20585;-80
2021/12/06 03:55:07;;;;;;;10.20;6.20;;;14.30;56.90;;;;;;5097616;28;21011;-80
2021/12/06 03:57:34;;;;;;;9.20;6.67;;;14.30;57.00;;;;;;5104955;28;20429;-81
2021/12/06 04:00:04;;;;;;;8.00;5.70;;;14.30;57.00;;;;;;5105259;28;20452;-81
2021/12/06 04:02:32;;;;;;;7.17;5.70;;;14.30;57.00;;;;;;5104112;28;20468;-80
2021/12/06 04:05:02;;;;;;;6.57;5.37;;;14.30;57.00;;;;;;5104166;28;20532;-81
2021/12/06 04:07:30;;;;;;;6.43;5.57;;;14.30;57.00;;;;;;5103937;28;20444;-80
2021/12/06 04:09:58;;;;;;;6.87;5.63;;;14.30;56.90;;;;;;5104403;28;20455;-80
2021/12/06 04:12:26;;;;;;;7.80;6.47;;;14.30;56.90;;;;;;5100374;28;20480;-80
2021/12/06 04:14:54;;;;;;;7.43;5.53;;;14.30;56.90;;;;;;5103755;28;20908;-80
2021/12/06 04:17:22;;;;;;;7.80;5.73;;;14.30;57.00;;;;;;5104584;28;20448;-80
2021/12/06 04:19:50;;;;;;;7.30;6.13;;;14.30;57.00;;;;;;5104814;28;20441;-80
2021/12/06 04:22:20;;;;;;;7.30;6.10;;;14.30;57.00;;;;;;5104160;28;20936;-80
2021/12/06 04:24:48;;;;;;;6.13;5.57;;;14.30;56.90;;;;;;5104546;28;20464;-81
2021/12/06 04:27:18;;;;;;;7.87;6.13;;;14.30;57.00;;;;;;5101079;28;20522;-80
2021/12/06 04:29:47;;;;;;;7.70;5.90;;;14.30;57.60;;;;;;5102143;28;20494;-80
2021/12/06 04:32:15;;;;;;;8.50;6.37;;;14.30;56.90;;;;;;5104149;28;20437;-80
2021/12/06 04:34:44;;;;;;;7.90;6.40;;;14.30;57.00;;;;;;5102600;28;20632;-80
2021/12/06 04:37:12;;;;;;;9.07;6.40;;;14.30;57.00;;;;;;5102574;28;20482;-80
2021/12/06 04:39:41;;;;;;;8.00;5.57;;;14.30;57.00;;;;;;5101896;28;20425;-80
2021/12/06 04:42:09;;;;;;;8.50;6.33;;;14.30;57.00;;;;;;5101543;28;20455;-80
2021/12/06 04:44:37;;;;;;;7.07;5.77;;;14.30;57.10;;;;;;5098291;28;20440;-81
2021/12/06 04:47:06;;;;;;;9.00;6.40;;;14.30;57.00;;;;;;5100275;28;20455;-80
2021/12/06 04:49:34;;;;;;;7.07;5.60;;;14.30;57.00;;;;;;5101768;28;20447;-80
2021/12/06 04:52:05;;;;;;;7.57;6.50;;;14.30;57.10;;;;;;5101853;28;20439;-81
2021/12/06 04:54:35;;;;;;;7.13;5.80;;;14.30;56.90;;;;;;5101071;28;20445;-81
2021/12/06 04:57:07;;;;;;;8.17;6.10;;;14.30;56.90;;;;;;5099778;28;20476;-81
2021/12/06 04:59:36;;;;;;;9.07;6.53;;;14.30;56.90;;;;;;5100412;28;20468;-81
2021/12/06 05:02:07;;;;;;;8.90;6.10;;;14.30;56.90;;;;;;5086692;28;20444;-81
2021/12/06 05:04:36;;;;;;;8.73;6.30;;;14.30;56.90;;;;;;5104927;28;20502;-80
2021/12/06 05:07:08;;;;;;;7.60;6.07;;;14.30;56.80;;;;;;5093481;28;20499;-80
2021/12/06 05:09:37;;;;;;;8.47;6.10;;;14.30;57.00;;;;;;5100383;28;20424;-80
2021/12/06 05:12:09;;;;;;;8.17;5.93;;;14.30;57.00;;;;;;5098836;28;20429;-81
2021/12/06 05:14:37;;;;;;;7.50;6.00;;;14.30;57.00;;;;;;5101108;28;20443;-80
2021/12/06 05:17:05;;;;;;;6.37;5.50;;;14.30;57.00;;;;;;5100849;28;20441;-80
2021/12/06 05:19:33;;;;;;;7.40;5.93;;;14.30;57.00;;;;;;5093475;28;20448;-80
2021/12/06 05:22:05;;;;;;;8.50;6.57;;;14.30;57.00;;;;;;5081791;28;20444;-81
2021/12/06 05:24:32;;;;;;;8.07;6.73;;;14.30;56.90;;;;;;5081561;28;20429;-81
2021/12/06 05:27:00;;;;;;;8.13;6.13;;;14.30;57.00;;;;;;5080345;28;20523;-81
2021/12/06 05:29:30;;;;;;;8.10;6.20;;;14.30;57.00;;;;;;5081503;28;20501;-81
2021/12/06 05:31:59;;;;;;;10.47;7.17;;;14.30;56.90;;;;;;5086078;28;20448;-81
2021/12/06 05:34:33;;;;;;;9.37;6.70;;;14.30;57.00;;;;;;5085359;28;20437;-81
2021/12/06 05:37:01;;;;;;;9.73;6.33;;;14.30;57.00;;;;;;5098421;28;20441;-81
2021/12/06 05:39:30;;;;;;;7.57;6.53;;;14.30;56.90;;;;;;5100480;28;20437;-81
2021/12/06 05:41:59;;;;;;;9.80;7.23;;;14.30;56.90;;;;;;5100504;28;20425;-81
2021/12/06 05:44:27;;;;;;;8.53;6.47;;;14.30;56.90;;;;;;5100296;28;20449;-81
2021/12/06 05:46:56;;;;;;;9.50;6.90;;;14.30;56.90;;;;;;5099892;28;20508;-81
2021/12/06 05:49:25;;;;;;;9.47;6.57;;;14.30;57.00;;;;;;5099852;28;20442;-81
2021/12/06 05:51:54;;;;;;;8.00;6.13;;;14.30;56.90;;;;;;5097713;28;20488;-81
2021/12/06 05:54:22;;;;;;;9.47;6.77;;;14.30;57.00;;;;;;5094291;28;20460;-81
2021/12/06 05:56:50;;;;;;;7.97;6.27;;;14.30;57.50;;;;;;5101027;28;20457;-81
2021/12/06 05:59:18;;;;;;;9.37;6.30;;;14.30;57.00;;;;;;5100466;28;20441;-80
2021/12/06 06:01:48;;;;;;;10.00;6.80;;;14.30;56.90;;;;;;5100769;28;20456;-80
2021/12/06 06:04:18;;;;;;;6.80;5.93;;;14.20;57.00;;;;;;5100107;28;20453;-80
2021/12/06 06:06:45;;;;;;;9.80;6.87;;;14.30;56.90;;;;;;5100343;28;20476;-80
2021/12/06 06:09:14;;;;;;;8.80;6.70;;;14.30;56.90;;;;;;5101086;28;20479;-80
2021/12/06 06:11:41;;;;;;;8.10;5.97;;;14.30;57.00;;;;;;5092278;28;20491;-80
2021/12/06 06:14:10;;;;;;;10.37;7.47;;;14.30;56.90;;;;;;5099578;28;20499;-80
2021/12/06 06:16:47;;;;;;;8.23;6.57;;;14.30;56.90;;;;;;5099990;28;20441;-80
2021/12/06 06:19:16;;;;;;;8.37;6.60;;;14.30;56.80;;;;;;5099705;28;20433;-80
2021/12/06 06:21:45;;;;;;;9.27;6.43;;;14.20;56.80;;;;;;5098798;28;20437;-81
2021/12/06 06:24:13;;;;;;;8.47;6.83;;;14.30;56.90;;;;;;5100422;28;20483;-80
2021/12/06 06:26:41;;;;;;;8.90;6.73;;;14.30;56.80;;;;;;5097163;28;20505;-80
2021/12/06 06:29:09;;;;;;;9.37;6.70;;;14.30;56.80;;;;;;5092213;28;20468;-81
2021/12/06 06:31:37;;;;;;;9.60;6.83;;;14.30;56.90;;;;;;5097939;28;20429;-81
2021/12/06 06:34:05;;;;;;;9.77;6.90;;;14.20;56.70;;;;;;5098034;28;20531;-81
2021/12/06 06:36:35;;;;;;;9.10;6.60;;;14.30;56.80;;;;;;5099453;28;20441;-81
2021/12/06 06:39:05;;;;;;;8.50;6.27;;;14.20;56.70;;;;;;5100098;28;20441;-81
2021/12/06 06:41:33;;;;;;;9.73;7.50;;;14.30;56.80;;;;;;5099171;28;20464;-81
2021/12/06 06:44:01;;;;;;;8.57;6.73;;;14.20;56.70;;;;;;5096892;28;20503;-81
2021/12/06 06:46:28;;;;;;;9.30;6.93;;;14.20;56.70;;;;;;5097376;28;20559;-81
2021/12/06 06:48:57;;;;;;;9.23;7.20;;;14.20;56.80;;;;;;5098247;28;20482;-81
2021/12/06 06:51:27;;;;;;;8.40;6.93;;;14.20;56.80;;;;;;5099784;28;20464;-81
2021/12/06 06:53:55;;;;;;;10.07;7.13;;;14.20;56.60;;;;;;5099733;28;20506;-81
2021/12/06 06:56:24;;;;;;;8.77;6.93;;;14.20;56.80;;;;;;5099019;28;20437;-81
2021/12/06 06:58:52;;;;;;;9.10;6.90;;;14.20;56.80;;;;;;5099402;28;20437;-81
2021/12/06 07:01:20;;;;;;;12.30;7.83;;;14.20;56.80;;;;;;5093289;28;20480;-81
2021/12/06 07:03:50;;;;;;;9.70;7.00;;;14.20;56.70;;;;;;5101562;28;20453;-81
2021/12/06 07:06:18;;;;;;;11.10;7.93;;;14.20;56.70;;;;;;5099287;28;20473;-82
2021/12/06 07:08:46;;;;;;;11.63;7.80;;;14.20;56.60;;;;;;5100684;28;20452;-81
2021/12/06 07:11:14;;;;;;;11.10;8.20;;;14.20;56.70;;;;;;5103065;28;20425;-81
2021/12/06 07:13:44;;;;;;;11.27;7.60;;;14.20;56.70;;;;;;5103866;28;20457;-81
2021/12/06 07:16:12;;;;;;;12.83;7.63;;;14.20;56.60;;;;;;5104994;28;20436;-81
2021/12/06 07:18:40;;;;;;;12.80;8.20;;;14.20;56.60;;;;;;5101539;28;20476;-81
2021/12/06 07:21:09;;;;;;;11.07;7.23;;;14.20;56.60;;;;;;5095631;28;20433;-81
2021/12/06 07:23:38;;;;;;;8.80;6.87;;;14.20;56.60;;;;;;5102483;28;20496;-81
2021/12/06 07:26:06;;;;;;;11.37;7.90;;;14.20;56.60;;;;;;5104485;28;20436;-81
2021/12/06 07:28:34;;;;;;;11.30;8.30;;;14.20;56.70;;;;;;5104370;28;20476;-81
2021/12/06 07:31:05;;;;;;;11.70;8.40;;;14.20;56.60;;;;;;5100903;28;20455;-81
2021/12/06 07:33:34;;;;;;;10.30;7.40;;;14.20;56.60;;;;;;5103201;28;20563;-81
2021/12/06 07:36:02;;;;;;;12.20;7.90;;;14.20;56.50;;;;;;5102513;28;20486;-81
2021/12/06 07:38:30;;;;;;;10.43;7.50;;;14.20;56.60;;;;;;5098195;28;20466;-81
2021/12/06 07:40:59;;;;;;;11.53;8.13;;;14.20;56.40;;;;;;5103446;28;20425;-81
2021/12/06 07:43:26;;;;;;;10.97;7.60;;;14.20;56.50;;;;;;5104096;28;20460;-81
2021/12/06 07:45:55;;;;;;;11.63;7.63;;;14.20;56.40;;;;;;5103869;28;20441;-81
2021/12/06 07:48:24;;;;;;;12.70;8.43;;;14.20;56.30;;;;;;5102808;28;20805;-81
2021/12/06 07:50:52;;;;;;;12.30;8.67;;;14.20;56.40;;;;;;5102889;28;20478;-81
2021/12/06 07:53:20;;;;;;;10.37;7.47;;;14.20;56.50;;;;;;5102631;28;20449;-82
2021/12/06 07:55:48;;;;;;;12.43;8.13;;;14.20;56.40;;;;;;5094084;28;20760;-82
2021/12/06 07:58:16;;;;;;;11.77;8.00;;;14.20;56.30;;;;;;5102714;28;20488;-81
2021/12/06 08:00:46;;;;;;;11.33;8.20;;;14.20;56.50;;;;;;5103865;28;20815;-81
2021/12/06 08:03:15;;;;;;;11.60;8.40;;;14.20;56.50;;;;;;5103039;28;20506;-81
2021/12/06 08:05:45;;;;;;;9.73;7.23;;;14.20;56.40;;;;;;5101307;28;20423;-81
2021/12/06 08:08:14;;;;;;;11.07;7.77;;;14.20;56.40;;;;;;5101462;28;20456;-81
2021/12/06 08:10:44;;;;;;;10.80;7.67;;;14.20;56.40;;;;;;5100039;28;20457;-81
2021/12/06 08:13:12;;;;;;;12.67;7.93;;;14.20;56.40;;;;;;5101370;28;20449;-81
2021/12/06 08:15:40;;;;;;;9.93;7.73;;;14.20;56.30;;;;;;5101689;28;20445;-81
2021/12/06 08:18:08;;;;;;;10.97;7.60;;;14.20;56.20;;;;;;5101982;28;20445;-81
2021/12/06 08:20:37;;;;;;;11.90;8.13;;;14.20;56.20;;;;;;5102061;28;20520;-81
2021/12/06 08:23:06;;;;;;;13.63;9.00;;;14.20;56.30;;;;;;5100098;28;20487;-81
2021/12/06 08:25:34;;;;;;;13.13;8.53;;;14.20;56.30;;;;;;5101028;28;20441;-81
2021/12/06 08:28:02;;;;;;;11.03;7.83;;;14.20;56.20;;;;;;5098251;28;20476;-81
2021/12/06 08:30:30;;;;;;;12.27;8.30;;;14.20;56.40;;;;;;5100565;28;20429;-81
2021/12/06 08:32:59;;;;;;;11.60;8.37;;;14.20;56.40;;;;;;5102143;28;20465;-81
2021/12/06 08:35:35;;;;;;;12.50;8.20;;;14.20;56.20;;;;;;5101793;28;20437;-80
2021/12/06 08:38:04;;;;;;;12.50;8.47;;;14.20;56.30;;;;;;5101851;28;20486;-80
2021/12/06 08:40:33;;;;;;;11.10;7.77;;;14.20;56.40;;;;;;5101662;28;20465;-80
2021/12/06 08:43:01;;;;;;;13.50;8.57;;;14.20;56.30;;;;;;5102178;28;20460;-81
2021/12/06 08:45:29;;;;;;;12.47;8.20;;;14.20;56.20;;;;;;5096225;28;20504;-81
2021/12/06 08:47:57;;;;;;;14.53;9.33;;;14.20;56.20;;;;;;5092909;28;20465;-80
2021/12/06 08:50:25;;;;;;;11.90;8.47;;;14.20;56.30;;;;;;5089556;28;20436;-80
2021/12/06 08:52:53;;;;;;;11.87;8.40;;;14.30;56.20;;;;;;5091327;28;20536;-80
2021/12/06 08:55:21;;;;;;;13.53;9.07;;;14.20;56.20;;;;;;5090585;28;20458;-80
2021/12/06 08:57:51;;;;;;;14.70;9.27;;;14.20;56.30;;;;;;5090078;28;20437;-80
2021/12/06 09:00:20;;;;;;;11.60;8.13;;;14.20;56.20;;;;;;5090522;28;20421;-80
2021/12/06 09:02:49;;;;;;;11.57;8.23;;;14.30;56.30;;;;;;5089760;28;20493;-80
2021/12/06 09:05:22;;;;;;;11.20;8.10;;;14.20;56.20;;;;;;5092334;28;20439;-80
2021/12/06 09:07:50;;;;;;;10.80;8.10;;;14.30;56.20;;;;;;5090866;28;20531;-80
2021/12/06 09:10:18;;;;;;;13.10;8.43;;;14.30;56.30;;;;;;5089275;28;20476;-81
2021/12/06 09:12:46;;;;;;;12.37;9.07;;;14.30;56.20;;;;;;5088476;28;20501;-81
2021/12/06 09:15:18;;;;;;;12.17;8.77;;;14.30;56.20;;;;;;5090639;28;20445;-81
2021/12/06 09:17:48;;;;;;;13.03;8.83;;;14.30;56.10;;;;;;5099031;28;20475;-81
2021/12/06 09:20:17;;;;;;;12.97;8.80;;;14.30;56.10;;;;;;5090563;28;20517;-81
2021/12/06 09:22:47;;;;;;;15.43;9.63;;;14.30;56.10;;;;;;5099308;28;20477;-81
2021/12/06 09:25:15;;;;;;;12.10;8.93;;;14.30;56.00;;;;;;5099616;28;20436;-81
2021/12/06 09:27:44;;;;;;;12.93;9.10;;;14.30;56.10;;;;;;5098502;28;20502;-81
2021/12/06 09:30:13;;;;;;;10.57;7.83;;;14.30;56.20;;;;;;5098389;28;20464;-81
2021/12/06 09:32:43;;;;;;;12.63;9.20;;;14.30;56.10;;;;;;5099451;28;20456;-82
2021/12/06 09:35:14;;;;;;;14.37;9.10;;;14.30;56.10;;;;;;5099316;28;20490;-81
2021/12/06 09:37:43;;;;;;;12.67;8.63;;;14.40;56.20;;;;;;5091877;28;20480;-82
2021/12/06 09:40:14;;;;;;;13.33;9.20;;;14.30;56.00;;;;;;5100159;28;20441;-81
2021/12/06 09:42:43;;;;;;;12.60;9.10;;;14.40;56.10;;;;;;5100061;28;20556;-81
2021/12/06 09:45:12;;;;;;;15.07;9.83;;;14.30;56.00;;;;;;5100055;28;20436;-81
2021/12/06 09:47:45;;;;;;;15.23;9.70;;;14.40;56.00;;;;;;5099897;28;20553;-81
2021/12/06 09:50:14;;;;;;;14.67;9.33;;;14.30;55.90;;;;;;5099589;28;20448;-81
2021/12/06 09:52:42;;;;;;;13.43;9.33;;;14.40;56.00;;;;;;5096810;28;20480;-81
2021/12/06 09:55:10;;;;;;;12.47;9.20;;;14.30;55.80;;;;;;5099627;28;20464;-81
2021/12/06 09:57:38;;;;;;;13.03;8.83;;;14.30;55.90;;;;;;5100199;28;20436;-81
2021/12/06 10:00:08;;;;;;;14.03;9.07;;;14.30;55.80;;;;;;5099243;28;20444;-81
2021/12/06 10:02:36;;;;;;;12.53;8.87;;;14.30;56.00;;;;;;5098532;28;20452;-81
2021/12/06 10:05:05;;;;;;;14.73;9.73;;;14.30;55.80;;;;;;5099148;28;20455;-81
2021/12/06 10:07:34;;;;;;;13.90;9.40;;;14.40;56.00;;;;;;5096194;28;20512;-81
2021/12/06 10:10:04;;;;;;;13.63;9.60;;;14.30;55.90;;;;;;5086789;28;20449;-81
2021/12/06 10:12:32;;;;;;;15.17;9.67;;;14.40;55.90;;;;;;5087556;28;20457;-81
2021/12/06 10:15:03;;;;;;;15.87;9.93;;;14.30;55.90;;;;;;5081987;28;20480;-81
2021/12/06 10:17:32;;;;;;;13.27;9.33;;;14.30;55.90;;;;;;5118641;28;20439;-81
2021/12/06 10:20:00;;;;;;;16.90;9.83;;;14.40;56.00;;;;;;5120302;28;20452;-81
2021/12/06 10:22:28;;;;;;;14.80;9.40;;;14.40;56.00;;;;;;5110856;28;20488;-81
2021/12/06 10:24:59;;;;;;;14.00;9.40;;;14.40;56.00;;;;;;5108693;28;20475;-81
2021/12/06 10:27:52;;;;;;;11.63;8.27;;;14.40;56.00;;;;;;5098990;28;20520;-81
2021/12/06 10:30:20;;;;;;;17.40;10.47;;;14.40;56.00;;;;;;5103452;28;20478;-81
2021/12/06 10:32:48;;;;;;;14.90;10.13;;;14.40;56.00;;;;;;5107330;28;20448;-81
2021/12/06 10:35:16;;;;;;;16.20;10.00;;;14.40;55.90;;;;;;5109042;28;20528;-81
2021/12/06 10:37:46;;;;;;;14.97;9.37;;;14.30;55.70;;;;;;5106006;28;20497;-81
2021/12/06 10:40:18;;;;;;;15.13;9.83;;;14.30;55.70;;;;;;5108753;28;20460;-81
2021/12/06 10:42:47;;;;;;;13.70;9.23;;;14.30;55.80;;;;;;5105628;28;20480;-81
2021/12/06 10:45:17;;;;;;;13.90;9.37;;;14.30;55.80;;;;;;5097878;28;20540;-81
2021/12/06 10:48:01;;;;;;;14.70;9.70;;;14.30;55.90;;;;;;5103716;28;20460;-81
2021/12/06 10:50:29;;;;;;;15.67;9.93;;;14.30;55.90;;;;;;5097673;28;20464;-83
2021/12/06 10:52:57;;;;;;;16.00;10.23;;;14.30;55.80;;;;;;5098189;28;20574;-84
2021/12/06 10:55:29;;;;;;;14.77;9.90;;;14.30;55.80;;;;;;5098568;28;20428;-84
2021/12/06 10:57:59;;;;;;;17.27;10.10;;;14.30;55.60;;;;;;5098688;28;20433;-83
2021/12/06 11:00:29;;;;;;;13.57;9.13;;;14.30;55.70;;;;;;5097017;28;20432;-82
2021/12/06 11:02:57;;;;;;;18.13;11.07;;;14.30;55.80;;;;;;5099721;28;20868;-81
2021/12/06 11:05:27;;;;;;;20.60;11.70;;;14.20;55.60;;;;;;5102374;28;20441;-81
2021/12/06 11:08:08;;;;;;;20.83;12.00;;;14.20;55.60;;;;;;5105364;28;20472;-81
2021/12/06 11:10:47;;;;;;;17.80;10.73;;;14.20;56.00;;;;;;5103777;28;20456;-82
2021/12/06 11:13:16;;;;;;;23.33;11.87;;;14.20;55.40;;;;;;5106246;28;20444;-82
2021/12/06 11:15:55;;;;;;;22.23;12.17;;;14.20;55.40;;;;;;5104957;28;20437;-82
2021/12/06 11:18:49;;;;;;;24.20;13.00;;;14.20;55.30;;;;;;5102229;28;20445;-81
2021/12/06 11:21:26;;;;;;;23.90;12.73;;;14.20;55.20;;;;;;5084985;28;20436;-81
2021/12/06 11:23:59;;;;;;;26.27;14.10;;;14.20;55.00;;;;;;5103942;28;20517;-81
2021/12/06 11:26:28;;;;;;;25.63;12.93;;;14.20;55.10;;;;;;5107899;28;20428;-81
2021/12/06 11:29:01;;;;;;;24.73;13.20;;;14.20;55.00;;;;;;5106663;28;20479;-81
2021/12/06 11:31:33;;;;;;;27.17;13.67;;;14.20;55.10;;;;;;5106207;28;20428;-80
2021/12/06 11:34:02;;;;;;;25.93;13.77;;;14.20;55.00;;;;;;5098952;28;20477;-83
2021/12/06 11:36:31;;;;;;;26.13;13.30;;;14.10;55.00;;;;;;5088200;28;20898;-80
2021/12/06 11:39:01;;;;;;;27.17;13.53;;;14.20;54.90;;;;;;5093214;28;20428;-81
2021/12/06 11:41:30;;;;;;;27.30;13.57;;;14.20;54.90;;;;;;5094515;28;20429;-81
2021/12/06 11:43:59;;;;;;;25.67;13.30;;;14.20;55.00;;;;;;5090670;28;20456;-82
2021/12/06 11:46:28;;;;;;;24.10;13.00;;;14.20;54.90;;;;;;5094475;28;21018;-82
2021/12/06 11:48:57;;;;;;;27.97;13.23;;;14.20;55.00;;;;;;5097625;28;20551;-81
2021/12/06 11:51:25;;;;;;;26.93;13.47;;;14.20;55.00;;;;;;5097272;28;20453;-82
2021/12/06 11:53:55;;;;;;;23.70;13.30;;;14.20;54.90;;;;;;5091806;28;20465;-82
2021/12/06 11:56:24;;;;;;;29.17;14.13;;;14.20;55.00;;;;;;5096139;28;20450;-81
2021/12/06 11:58:59;;;;;;;25.63;14.20;;;14.20;55.00;;;;;;5095279;28;20424;-80
2021/12/06 12:01:29;;;;;;;29.20;15.17;;;14.20;55.00;;;;;;5098508;28;20460;-81
2021/12/06 12:03:59;;;;;;;30.63;14.70;;;14.20;55.00;;;;;;5097280;28;20453;-82
2021/12/06 12:06:29;;;;;;;25.23;13.33;;;14.20;55.00;;;;;;5099725;28;20440;-81
2021/12/06 12:09:20;;;;;;;27.33;14.00;;;14.20;55.20;;;;;;5097418;28;20516;-82
2021/12/06 12:11:57;;;;;;;22.37;12.63;;;14.20;55.20;;;;;;5090688;28;20443;-81
2021/12/06 12:14:36;;;;;;;26.80;13.63;;;14.20;55.10;;;;;;5097018;28;20441;-81
2021/12/06 12:17:05;;;;;;;24.20;12.43;;;14.20;55.80;;;;;;5098655;28;20451;-81
2021/12/06 12:19:33;;;;;;;24.97;13.07;;;14.20;55.10;;;;;;5098805;28;20421;-81
2021/12/06 12:22:01;;;;;;;25.60;13.07;;;14.20;55.40;;;;;;5095852;28;20468;-80
2021/12/06 12:24:30;;;;;;;30.10;13.60;;;14.30;55.30;;;;;;5096376;28;20464;-81
2021/12/06 12:27:04;;;;;;;28.07;13.40;;;14.30;55.30;;;;;;5095618;28;20453;-81
2021/12/06 12:29:35;;;;;;;27.17;14.10;;;14.30;55.40;;;;;;5095517;28;20507;-80
2021/12/06 12:32:05;;;;;;;29.10;13.73;;;14.40;55.50;;;;;;5094456;28;20429;-83
2021/12/06 12:34:38;;;;;;;24.30;13.23;;;14.40;55.30;;;;;;5094385;28;20441;-81
2021/12/06 12:37:07;;;;;;;26.30;14.17;;;14.40;55.40;;;;;;5094420;28;20471;-81
2021/12/06 12:39:35;;;;;;;27.30;12.97;;;14.40;55.40;;;;;;5096016;28;20454;-81
2021/12/06 12:42:05;;;;;;;22.67;13.20;;;14.40;55.30;;;;;;5094957;28;20452;-80
2021/12/06 12:44:45;;;;;;;37.40;17.37;;;14.40;55.40;;;;;;5087008;28;20589;-82
2021/12/06 12:47:14;;;;;;;49.93;20.97;;;14.50;52.10;;;;;;5085479;28;20461;-82
2021/12/06 12:49:49;;;;;;;38.63;17.60;;;14.20;52.60;;;;;;5086464;28;20538;-82
2021/12/06 12:52:17;;;;;;;45.13;20.60;;;13.90;53.40;;;;;;5086533;28;20464;-82
2021/12/06 12:54:46;;;;;;;48.93;21.73;;;13.80;51.90;;;;;;5086911;28;20498;-81
2021/12/06 12:57:16;;;;;;;49.20;21.40;;;13.70;53.00;;;;;;5086707;28;20440;-84
2021/12/06 12:59:47;;;;;;;45.43;20.77;;;13.60;52.60;;;;;;5094518;28;20429;-82